Time;durP1;ratioP1;P1;durP2;ratioP2;P2;SDS_P1;SDS_P2;PMS_P1;PMS_P2;Temp;Humidity;BMP_temperature;BMP_pressure;BME280_temperature;BME280_humidity;BME280_pressure;Samples;Min_cycle;Max_cycle;Signal;HPM_P1;HPM_P2
2020/12/15 00:01:58;;;;;;;9.93;8.60;;;19.30;25.30;;;;;;5077907;28;20631;-52
2020/12/15 00:04:28;;;;;;;12.27;8.82;;;19.30;25.20;;;;;;5095575;28;20895;-52
2020/12/15 00:06:53;;;;;;;9.85;8.85;;;19.30;25.20;;;;;;5095198;28;20613;-52
2020/12/15 00:09:19;;;;;;;7.37;6.67;;;19.30;26.00;;;;;;5095786;28;20604;-52
2020/12/15 00:11:45;;;;;;;8.50;7.70;;;19.30;25.20;;;;;;5095550;28;20166;-52
2020/12/15 00:14:11;;;;;;;8.17;7.37;;;19.30;25.20;;;;;;5095233;28;20945;-52
2020/12/15 00:16:36;;;;;;;9.03;7.90;;;19.30;25.20;;;;;;5096074;28;20146;-52
2020/12/15 00:19:02;;;;;;;8.90;7.47;;;19.30;25.20;;;;;;5095526;28;20260;-52
2020/12/15 00:21:28;;;;;;;9.15;8.25;;;19.30;25.20;;;;;;5076733;28;20177;-52
2020/12/15 00:23:54;;;;;;;9.27;8.27;;;19.30;25.20;;;;;;5095839;28;20162;-52
2020/12/15 00:26:22;;;;;;;8.40;7.47;;;19.30;25.20;;;;;;5095150;28;20839;-52
2020/12/15 00:28:51;;;;;;;9.45;7.97;;;19.30;25.20;;;;;;5095287;28;20154;-52
2020/12/15 00:31:18;;;;;;;8.48;7.25;;;19.30;25.20;;;;;;5076945;28;20606;-52
2020/12/15 00:33:43;;;;;;;8.88;8.00;;;19.30;25.20;;;;;;5077324;28;20216;-52
2020/12/15 00:36:10;;;;;;;7.97;7.17;;;19.30;25.20;;;;;;5094707;28;20186;-52
2020/12/15 00:38:36;;;;;;;8.23;7.43;;;19.30;25.20;;;;;;5095200;28;20200;-52
2020/12/15 00:41:02;;;;;;;8.20;7.40;;;19.30;25.20;;;;;;5095123;28;20154;-52
2020/12/15 00:43:28;;;;;;;9.00;8.20;;;19.30;25.20;;;;;;5095019;28;20158;-52
2020/12/15 00:45:53;;;;;;;8.97;8.07;;;19.30;25.20;;;;;;5094880;28;20501;-52
2020/12/15 00:48:19;;;;;;;8.63;7.73;;;19.30;25.10;;;;;;5060120;28;20197;-52
2020/12/15 00:50:45;;;;;;;9.73;7.37;;;19.30;25.70;;;;;;5076402;28;20162;-53
2020/12/15 00:53:10;;;;;;;9.30;8.37;;;19.30;25.10;;;;;;5076779;28;20699;-52
2020/12/15 00:55:36;;;;;;;8.60;7.23;;;19.30;25.10;;;;;;5094747;28;20154;-51
2020/12/15 00:58:02;;;;;;;7.67;6.90;;;19.30;25.10;;;;;;5094891;28;20169;-51
2020/12/15 01:00:27;;;;;;;7.10;6.40;;;19.30;25.20;;;;;;5094553;28;20584;-52
2020/12/15 01:02:53;;;;;;;6.67;6.07;;;19.30;25.10;;;;;;5094777;28;20162;-52
2020/12/15 01:05:19;;;;;;;10.07;8.60;;;19.30;25.20;;;;;;5059490;28;20627;-52
2020/12/15 01:07:46;;;;;;;7.73;6.93;;;19.30;25.10;;;;;;5094713;28;20181;-52
2020/12/15 01:10:12;;;;;;;8.05;7.25;;;19.40;25.20;;;;;;5076248;28;20166;-52
2020/12/15 01:12:38;;;;;;;11.07;7.78;;;19.30;25.10;;;;;;5094389;28;20596;-52
2020/12/15 01:15:03;;;;;;;9.00;8.20;;;19.30;25.10;;;;;;5094459;28;20267;-52
2020/12/15 01:17:29;;;;;;;7.50;6.80;;;19.30;25.10;;;;;;5094323;28;20166;-52
2020/12/15 01:19:54;;;;;;;9.20;7.77;;;19.30;25.10;;;;;;5094438;28;20494;-52
2020/12/15 01:22:20;;;;;;;7.53;6.77;;;19.30;25.10;;;;;;5094098;28;20631;-52
2020/12/15 01:24:49;;;;;;;8.03;7.30;;;19.30;25.10;;;;;;5075700;28;20526;-52
2020/12/15 01:27:14;;;;;;;9.90;8.25;;;19.30;25.10;;;;;;5093948;28;20697;-52
2020/12/15 01:29:40;;;;;;;8.93;8.03;;;19.30;25.10;;;;;;5076027;28;20162;-52
2020/12/15 01:32:06;;;;;;;7.77;7.03;;;19.30;25.10;;;;;;5094177;28;20166;-52
2020/12/15 01:34:32;;;;;;;8.30;7.50;;;19.40;25.10;;;;;;5094253;28;20208;-52
2020/12/15 01:37:02;;;;;;;7.68;6.90;;;19.40;25.10;;;;;;5093659;28;20228;-52
2020/12/15 01:39:28;;;;;;;8.07;6.28;;;19.30;25.10;;;;;;5094112;28;20158;-53
2020/12/15 01:41:54;;;;;;;8.17;7.37;;;19.30;25.10;;;;;;5094013;28;20200;-52
2020/12/15 01:44:19;;;;;;;8.80;8.00;;;19.40;25.10;;;;;;5093877;28;20146;-53
2020/12/15 01:46:45;;;;;;;9.50;8.50;;;19.40;25.10;;;;;;5093904;28;20189;-52
2020/12/15 01:49:11;;;;;;;7.73;7.03;;;19.40;25.10;;;;;;5094044;28;20162;-52
2020/12/15 01:51:37;;;;;;;7.57;6.87;;;19.40;25.10;;;;;;5093312;28;20616;-52
2020/12/15 01:54:04;;;;;;;9.23;7.50;;;19.40;25.10;;;;;;5093816;28;20382;-53
2020/12/15 01:56:30;;;;;;;8.40;7.60;;;19.40;25.10;;;;;;5093756;28;20161;-52
2020/12/15 01:58:58;;;;;;;8.50;7.70;;;19.40;25.10;;;;;;5075670;28;20165;-53
2020/12/15 02:01:25;;;;;;;6.80;6.20;;;19.30;24.60;;;;;;5093751;28;20457;-52
2020/12/15 02:03:51;;;;;;;8.15;6.95;;;19.40;25.10;;;;;;5093735;28;20180;-52
2020/12/15 02:06:18;;;;;;;6.97;6.30;;;19.40;25.10;;;;;;5093200;28;20612;-52
2020/12/15 02:08:44;;;;;;;7.75;6.95;;;19.40;25.10;;;;;;5093901;28;20176;-52
2020/12/15 02:11:11;;;;;;;8.23;7.03;;;19.40;25.00;;;;;;5093469;28;20597;-52
2020/12/15 02:13:37;;;;;;;8.55;7.65;;;19.40;25.00;;;;;;5093544;28;20302;-52
2020/12/15 02:16:05;;;;;;;7.35;6.65;;;19.40;25.00;;;;;;5093567;28;20161;-52
2020/12/15 02:18:30;;;;;;;8.27;7.47;;;19.40;25.00;;;;;;5093565;28;20287;-52
2020/12/15 02:20:56;;;;;;;8.23;7.40;;;19.40;25.10;;;;;;5093226;28;20672;-52
2020/12/15 02:23:22;;;;;;;8.00;6.93;;;19.40;25.00;;;;;;5093564;28;20158;-52
2020/12/15 02:25:50;;;;;;;7.63;6.93;;;19.40;25.60;;;;;;5093569;28;20482;-52
2020/12/15 02:28:16;;;;;;;8.10;7.07;;;19.40;25.00;;;;;;5093306;28;20426;-52
2020/12/15 02:30:42;;;;;;;8.83;7.83;;;19.40;25.00;;;;;;5093447;28;20150;-52
2020/12/15 02:33:07;;;;;;;8.30;7.40;;;19.40;25.00;;;;;;5093552;28;20150;-52
2020/12/15 02:35:33;;;;;;;7.30;6.60;;;19.40;25.00;;;;;;5075675;28;20150;-52
2020/12/15 02:37:58;;;;;;;8.40;7.60;;;19.40;25.00;;;;;;5097549;28;20595;-52
2020/12/15 02:40:24;;;;;;;9.13;7.70;;;19.40;25.00;;;;;;5097384;28;20166;-52
2020/12/15 02:42:50;;;;;;;8.70;7.80;;;19.40;25.00;;;;;;5097323;28;20164;-52
2020/12/15 02:45:15;;;;;;;8.00;6.93;;;19.40;25.00;;;;;;5097196;28;20162;-52
2020/12/15 02:47:41;;;;;;;7.60;6.80;;;19.40;25.00;;;;;;5097387;28;20261;-52
2020/12/15 02:50:07;;;;;;;8.17;7.37;;;19.40;25.00;;;;;;5097342;28;20486;-52
2020/12/15 02:52:35;;;;;;;8.40;7.50;;;19.40;25.00;;;;;;5096669;28;20161;-52
2020/12/15 02:55:00;;;;;;;8.10;7.30;;;19.40;25.00;;;;;;5097353;28;20527;-52
2020/12/15 02:57:26;;;;;;;7.80;7.10;;;19.40;25.00;;;;;;5078945;28;20154;-52
2020/12/15 02:59:51;;;;;;;8.33;7.27;;;19.40;25.00;;;;;;5079117;28;20162;-52
2020/12/15 03:02:19;;;;;;;8.97;7.53;;;19.40;25.00;;;;;;5097018;28;20154;-53
2020/12/15 03:04:46;;;;;;;7.22;6.45;;;19.40;25.00;;;;;;5097137;28;20150;-53
2020/12/15 03:07:13;;;;;;;8.45;7.57;;;19.40;25.00;;;;;;5078127;28;20708;-53
2020/12/15 03:09:38;;;;;;;8.95;7.50;;;19.40;25.00;;;;;;5096931;28;20162;-52
2020/12/15 03:12:04;;;;;;;6.63;6.03;;;19.40;25.00;;;;;;5096590;28;20158;-52
2020/12/15 03:14:30;;;;;;;7.63;7.00;;;19.40;25.00;;;;;;5096689;28;20233;-52
2020/12/15 03:16:56;;;;;;;7.60;6.90;;;19.40;25.00;;;;;;5096757;28;20158;-52
2020/12/15 03:19:21;;;;;;;7.10;6.50;;;19.40;25.00;;;;;;5078616;28;20212;-53
2020/12/15 03:21:47;;;;;;;9.10;6.80;;;19.40;25.00;;;;;;5096250;28;20582;-52
2020/12/15 03:24:12;;;;;;;7.83;7.03;;;19.40;25.00;;;;;;5096689;28;20158;-52
2020/12/15 03:26:38;;;;;;;8.53;7.47;;;19.40;25.00;;;;;;5096295;28;20636;-52
2020/12/15 03:29:04;;;;;;;8.97;7.50;;;19.40;25.00;;;;;;5078461;28;20596;-52
2020/12/15 03:31:29;;;;;;;7.53;6.70;;;19.40;25.00;;;;;;5096387;28;20210;-52
2020/12/15 03:33:55;;;;;;;8.03;7.20;;;19.40;25.00;;;;;;5078480;28;20154;-52
2020/12/15 03:36:21;;;;;;;9.47;7.00;;;19.40;25.00;;;;;;5095785;28;20164;-52
2020/12/15 03:38:49;;;;;;;7.50;6.67;;;19.30;24.90;;;;;;5096437;28;20162;-52
2020/12/15 03:41:15;;;;;;;7.50;6.80;;;19.40;25.00;;;;;;5078064;28;20232;-52
2020/12/15 03:43:41;;;;;;;7.27;6.57;;;19.40;25.00;;;;;;5061518;28;20547;-52
2020/12/15 03:46:06;;;;;;;7.67;6.87;;;19.30;25.00;;;;;;5096560;28;20669;-52
2020/12/15 03:48:32;;;;;;;6.83;6.23;;;19.30;25.50;;;;;;5095502;28;20154;-52
2020/12/15 03:50:57;;;;;;;7.53;6.80;;;19.30;25.00;;;;;;5095636;28;20195;-53
2020/12/15 03:53:23;;;;;;;8.03;7.07;;;19.30;24.90;;;;;;5096141;28;20161;-52
2020/12/15 03:55:52;;;;;;;7.50;6.70;;;19.30;25.00;;;;;;5095902;28;20224;-52
2020/12/15 03:58:18;;;;;;;7.55;6.53;;;19.30;25.00;;;;;;5078052;28;20195;-52
2020/12/15 04:00:44;;;;;;;7.05;6.20;;;19.30;25.00;;;;;;5095784;28;20154;-52
2020/12/15 04:03:10;;;;;;;7.78;7.07;;;19.40;25.00;;;;;;5095984;28;20234;-52
2020/12/15 04:05:37;;;;;;;6.60;6.00;;;19.30;25.00;;;;;;5095184;28;20551;-52
2020/12/15 04:08:03;;;;;;;10.40;8.45;;;19.30;25.00;;;;;;5095911;28;20406;-53
2020/12/15 04:10:29;;;;;;;7.05;6.30;;;19.30;25.00;;;;;;5095611;28;20150;-53
2020/12/15 04:12:55;;;;;;;7.43;6.73;;;19.30;25.00;;;;;;5060781;28;20278;-52
2020/12/15 04:15:21;;;;;;;7.90;7.10;;;19.30;25.00;;;;;;5095545;28;20154;-52
2020/12/15 04:17:47;;;;;;;6.85;6.15;;;19.30;25.00;;;;;;5060938;28;20200;-52
2020/12/15 04:20:13;;;;;;;7.20;6.57;;;19.30;25.00;;;;;;5077446;28;20617;-52
2020/12/15 04:22:38;;;;;;;7.17;6.47;;;19.30;25.00;;;;;;5095256;28;20199;-52
2020/12/15 04:25:04;;;;;;;8.20;7.40;;;19.30;25.00;;;;;;5095287;28;20400;-52
2020/12/15 04:27:30;;;;;;;8.50;7.70;;;19.30;25.00;;;;;;5095149;28;20201;-52
2020/12/15 04:29:55;;;;;;;7.10;6.20;;;19.30;25.00;;;;;;5095467;28;20154;-52
2020/12/15 04:32:22;;;;;;;6.77;6.17;;;19.30;25.00;;;;;;5095183;28;20449;-52
2020/12/15 04:34:51;;;;;;;6.72;6.20;;;19.30;25.00;;;;;;5095341;28;20153;-52
2020/12/15 04:37:17;;;;;;;8.32;6.85;;;19.30;25.00;;;;;;5094651;28;20193;-53
2020/12/15 04:39:42;;;;;;;7.60;6.90;;;19.30;25.00;;;;;;5076870;28;20193;-52
2020/12/15 04:42:08;;;;;;;7.00;6.30;;;19.30;25.00;;;;;;5095033;28;20644;-52
2020/12/15 04:44:35;;;;;;;6.87;6.20;;;19.30;25.00;;;;;;5095147;28;20169;-53
2020/12/15 04:47:13;;;;;;;6.68;5.90;;;19.30;25.00;;;;;;5094929;28;20181;-52
2020/12/15 04:49:48;;;;;;;7.68;7.03;;;19.30;25.00;;;;;;5095312;28;20154;-52
2020/12/15 04:52:16;;;;;;;6.95;6.28;;;19.30;25.00;;;;;;5094398;28;20211;-52
2020/12/15 04:54:45;;;;;;;7.70;6.80;;;19.30;25.00;;;;;;5094891;28;20154;-53
2020/12/15 04:57:18;;;;;;;7.40;6.63;;;19.30;25.00;;;;;;5094854;28;20165;-53
2020/12/15 04:59:46;;;;;;;6.72;6.10;;;19.40;25.00;;;;;;5094005;28;20193;-52
2020/12/15 05:02:12;;;;;;;6.70;6.05;;;19.30;25.00;;;;;;5076549;28;20196;-52
2020/12/15 05:04:42;;;;;;;7.93;6.50;;;19.30;25.00;;;;;;5094760;28;20613;-53
2020/12/15 05:07:09;;;;;;;7.22;6.47;;;19.30;25.00;;;;;;5075710;28;20193;-52
2020/12/15 05:09:35;;;;;;;6.85;6.25;;;19.30;25.00;;;;;;5094699;28;20248;-53
2020/12/15 05:12:02;;;;;;;7.20;6.50;;;19.40;25.00;;;;;;5076220;28;20173;-52
2020/12/15 05:14:28;;;;;;;6.13;5.53;;;19.30;25.00;;;;;;5076044;28;20220;-52
2020/12/15 05:16:54;;;;;;;7.47;6.68;;;19.30;25.00;;;;;;5059638;28;20177;-52
2020/12/15 05:19:23;;;;;;;6.90;6.28;;;19.30;25.00;;;;;;5076263;28;20173;-52
2020/12/15 05:21:59;;;;;;;7.00;6.35;;;19.30;25.00;;;;;;5075709;28;20158;-52
2020/12/15 05:24:28;;;;;;;6.30;5.70;;;19.30;25.00;;;;;;5076174;28;20214;-52
2020/12/15 05:26:59;;;;;;;6.60;6.00;;;19.30;25.00;;;;;;5094101;28;20216;-52
2020/12/15 05:29:25;;;;;;;6.30;5.70;;;19.30;25.00;;;;;;5094221;28;20189;-53
2020/12/15 05:31:52;;;;;;;6.65;6.05;;;19.30;25.00;;;;;;5094065;28;20158;-52
2020/12/15 05:34:26;;;;;;;7.10;6.40;;;19.30;25.00;;;;;;5094126;28;20177;-52
2020/12/15 05:36:58;;;;;;;8.20;6.40;;;19.40;25.00;;;;;;5093590;28;20157;-52
2020/12/15 05:39:25;;;;;;;8.68;6.55;;;19.40;25.00;;;;;;5094245;28;20162;-52
2020/12/15 05:42:08;;;;;;;6.45;5.85;;;19.30;25.00;;;;;;5093976;28;20189;-52
2020/12/15 05:44:36;;;;;;;6.57;6.00;;;19.30;25.00;;;;;;5094042;28;20504;-52
2020/12/15 05:47:04;;;;;;;7.43;6.78;;;19.30;25.00;;;;;;5093799;28;20188;-52
2020/12/15 05:49:31;;;;;;;6.43;5.82;;;19.30;25.00;;;;;;5093996;28;20199;-52
2020/12/15 05:51:57;;;;;;;6.43;5.82;;;19.30;25.00;;;;;;5093160;28;20160;-52
2020/12/15 05:54:23;;;;;;;6.88;6.28;;;19.30;25.00;;;;;;5093823;28;20181;-52
2020/12/15 05:57:00;;;;;;;7.47;6.77;;;19.40;25.00;;;;;;5093759;28;20193;-52
2020/12/15 05:59:26;;;;;;;6.78;6.13;;;19.40;25.00;;;;;;5093817;28;20654;-53
2020/12/15 06:01:53;;;;;;;7.20;6.50;;;19.40;25.00;;;;;;5093669;28;20165;-53
2020/12/15 06:04:20;;;;;;;6.80;6.20;;;19.40;25.00;;;;;;5093644;28;20636;-52
2020/12/15 06:06:47;;;;;;;7.38;6.55;;;19.40;25.00;;;;;;5092840;28;20199;-52
2020/12/15 06:09:14;;;;;;;6.85;6.20;;;19.40;25.00;;;;;;5093589;28;20146;-56
2020/12/15 06:11:42;;;;;;;7.22;6.53;;;19.40;25.00;;;;;;5098086;28;20542;-53
2020/12/15 06:14:09;;;;;;;6.80;6.20;;;19.40;25.00;;;;;;5100334;28;20251;-53
2020/12/15 06:16:36;;;;;;;7.47;6.75;;;19.40;25.00;;;;;;5082036;28;20170;-52
2020/12/15 06:19:08;;;;;;;6.43;5.78;;;19.40;25.00;;;;;;5081777;28;20169;-52
2020/12/15 06:22:01;;;;;;;6.20;5.60;;;19.40;24.90;;;;;;5099222;28;20158;-52
2020/12/15 06:24:28;;;;;;;7.25;6.55;;;19.40;24.90;;;;;;5078468;28;20207;-52
2020/12/15 06:27:01;;;;;;;9.10;6.47;;;19.40;24.90;;;;;;5099828;28;20199;-52
2020/12/15 06:29:35;;;;;;;6.60;6.00;;;19.40;24.90;;;;;;5100322;28;20672;-53
2020/12/15 06:32:03;;;;;;;6.13;5.47;;;19.40;24.90;;;;;;5100104;28;20160;-52
2020/12/15 06:34:30;;;;;;;6.60;6.00;;;19.50;25.00;;;;;;5099909;28;20153;-52
2020/12/15 06:36:57;;;;;;;6.55;5.82;;;19.40;24.80;;;;;;5099758;28;20504;-52
2020/12/15 06:39:25;;;;;;;5.50;4.95;;;19.50;24.90;;;;;;5100052;28;20627;-52
2020/12/15 06:42:17;;;;;;;6.63;5.95;;;19.50;24.90;;;;;;5081975;28;20157;-53
2020/12/15 06:44:43;;;;;;;6.18;5.57;;;19.50;24.90;;;;;;5095459;28;20177;-52
2020/12/15 06:47:09;;;;;;;7.53;6.83;;;19.50;24.90;;;;;;5099856;28;20667;-52
2020/12/15 06:49:36;;;;;;;7.30;6.60;;;19.50;24.90;;;;;;5099682;28;20651;-52
2020/12/15 06:52:08;;;;;;;6.68;5.97;;;19.50;24.80;;;;;;5099218;28;20596;-52
2020/12/15 06:54:37;;;;;;;6.75;6.13;;;19.50;24.80;;;;;;5100336;28;20237;-52
2020/12/15 06:57:08;;;;;;;6.25;5.75;;;19.50;24.80;;;;;;5099778;28;20161;-52
2020/12/15 06:59:39;;;;;;;6.05;5.55;;;19.50;24.80;;;;;;5081583;28;20197;-52
2020/12/15 07:02:15;;;;;;;6.30;5.72;;;19.50;24.80;;;;;;5081691;28;20172;-52
2020/12/15 07:04:46;;;;;;;5.80;5.30;;;19.50;24.80;;;;;;5099655;28;20161;-51
2020/12/15 07:07:13;;;;;;;6.43;5.60;;;19.50;24.80;;;;;;5099198;28;20194;-54
2020/12/15 07:09:39;;;;;;;5.85;5.35;;;19.60;24.80;;;;;;5099729;28;20154;-52
2020/12/15 07:12:16;;;;;;;7.72;6.25;;;19.60;24.80;;;;;;5081669;28;20162;-52
2020/12/15 07:15:00;;;;;;;6.32;5.72;;;19.60;24.80;;;;;;5081081;28;20316;-52
2020/12/15 07:17:26;;;;;;;6.47;5.90;;;19.60;24.80;;;;;;5099357;28;20187;-52
2020/12/15 07:19:51;;;;;;;7.13;6.43;;;19.60;24.80;;;;;;5088740;28;20676;-53
2020/12/15 07:22:22;;;;;;;5.97;5.37;;;18.20;18.60;;;;;;5077395;28;20271;-54
2020/12/15 07:24:48;;;;;;;7.30;6.13;;;16.80;18.90;;;;;;5093065;28;20620;-53
2020/12/15 07:27:14;;;;;;;8.10;6.67;;;16.20;20.80;;;;;;5069534;28;20205;-52
2020/12/15 07:29:39;;;;;;;7.23;6.63;;;15.60;21.30;;;;;;5075447;28;20170;-51
2020/12/15 07:32:05;;;;;;;6.83;6.23;;;15.10;22.40;;;;;;5056305;28;20421;-53
2020/12/15 07:34:31;;;;;;;6.20;5.40;;;14.60;23.10;;;;;;5068001;28;20208;-54
2020/12/15 07:36:56;;;;;;;6.40;5.37;;;14.50;25.40;;;;;;5094767;28;20616;-54
2020/12/15 07:39:22;;;;;;;7.73;5.90;;;14.70;29.00;;;;;;5095631;28;20223;-55
2020/12/15 07:42:02;;;;;;;5.63;5.10;;;15.10;29.80;;;;;;5075815;28;20203;-56
2020/12/15 07:44:28;;;;;;;5.25;4.50;;;15.60;29.40;;;;;;5095657;28;20624;-56
2020/12/15 07:46:56;;;;;;;5.80;5.07;;;16.10;29.80;;;;;;5095270;28;20273;-54
2020/12/15 07:49:22;;;;;;;7.05;5.00;;;16.50;28.40;;;;;;5077283;28;20416;-55
2020/12/15 07:51:50;;;;;;;5.10;4.60;;;16.90;27.90;;;;;;5094105;28;20162;-55
2020/12/15 07:54:16;;;;;;;5.57;4.03;;;17.20;27.30;;;;;;5094242;28;20150;-55
2020/12/15 07:56:42;;;;;;;5.50;4.90;;;17.50;26.90;;;;;;5063693;28;20174;-55
2020/12/15 07:59:11;;;;;;;6.57;5.90;;;17.70;26.50;;;;;;5018732;28;20948;-55
2020/12/15 08:01:38;;;;;;;6.53;5.43;;;17.90;26.70;;;;;;5057328;28;20236;-53
2020/12/15 08:04:11;;;;;;;7.35;5.28;;;18.20;26.20;;;;;;5067135;28;20234;-54
2020/12/15 08:06:46;;;;;;;5.22;4.60;;;18.30;25.90;;;;;;5062497;28;20193;-55
2020/12/15 08:09:14;;;;;;;5.15;4.65;;;18.50;25.80;;;;;;5050306;28;20248;-52
2020/12/15 08:11:48;;;;;;;5.28;4.10;;;18.60;25.60;;;;;;5063487;28;20801;-54
2020/12/15 08:14:15;;;;;;;4.97;4.53;;;18.80;25.30;;;;;;5064703;28;20226;-53
2020/12/15 08:16:42;;;;;;;4.80;4.40;;;18.90;25.00;;;;;;5061070;28;20173;-53
2020/12/15 08:19:09;;;;;;;5.57;5.07;;;19.00;24.90;;;;;;5051965;28;20169;-52
2020/12/15 08:21:48;;;;;;;4.00;3.70;;;;;;;;;;5061727;28;20177;-53
2020/12/15 08:24:18;;;;;;;4.70;3.92;;;19.20;24.30;;;;;;5069609;28;20234;-52
2020/12/15 08:26:45;;;;;;;5.45;4.60;;;19.30;24.80;;;;;;5038835;28;20201;-53
2020/12/15 08:29:12;;;;;;;3.85;3.55;;;19.30;24.80;;;;;;5036446;28;20178;-54
2020/12/15 08:31:42;;;;;;;3.83;3.53;;;19.40;24.80;;;;;;5066050;28;20623;-53
2020/12/15 08:34:12;;;;;;;6.00;3.67;;;;;;;;;;5049139;28;20686;-53
2020/12/15 08:36:46;;;;;;;4.35;3.92;;;19.50;24.50;;;;;;5066483;28;20230;-54
2020/12/15 08:39:13;;;;;;;3.92;3.53;;;19.60;25.10;;;;;;5015608;28;20265;-51
2020/12/15 08:41:57;;;;;;;4.22;3.83;;;19.60;25.60;;;;;;5064336;28;20264;-53
2020/12/15 08:44:25;;;;;;;7.13;4.20;;;19.60;25.10;;;;;;5067493;28;20246;-55
2020/12/15 08:46:55;;;;;;;4.43;4.03;;;19.70;25.00;;;;;;5066089;28;20193;-55
2020/12/15 08:49:22;;;;;;;4.53;3.42;;;19.70;25.20;;;;;;5036890;28;20532;-53
2020/12/15 08:51:50;;;;;;;4.47;3.72;;;19.70;25.20;;;;;;5063270;28;20166;-56
2020/12/15 08:54:19;;;;;;;7.75;3.90;;;19.70;25.40;;;;;;5061802;28;20486;-54
2020/12/15 08:56:46;;;;;;;5.80;3.90;;;19.80;25.50;;;;;;5061853;28;20165;-53
2020/12/15 08:59:20;;;;;;;4.90;4.40;;;19.80;25.50;;;;;;5053653;28;20165;-51
2020/12/15 09:01:47;;;;;;;4.55;4.25;;;19.80;25.50;;;;;;5040515;28;20185;-53
2020/12/15 09:04:25;;;;;;;5.80;4.07;;;19.90;25.50;;;;;;5060486;28;20191;-52
2020/12/15 09:06:51;;;;;;;4.03;3.63;;;19.90;25.40;;;;;;5041935;28;20201;-53
2020/12/15 09:09:26;;;;;;;3.95;3.55;;;19.90;25.40;;;;;;5051483;28;20211;-51
2020/12/15 09:11:56;;;;;;;4.05;3.67;;;19.90;25.40;;;;;;5030284;28;20177;-52
2020/12/15 09:14:22;;;;;;;8.43;4.03;;;19.90;25.40;;;;;;5050921;28;20214;-52
2020/12/15 09:16:49;;;;;;;3.92;3.25;;;19.90;25.40;;;;;;5064154;28;20174;-54
2020/12/15 09:19:21;;;;;;;4.57;4.18;;;19.90;25.20;;;;;;5049695;28;20214;-53
2020/12/15 09:22:02;;;;;;;4.05;3.13;;;20.00;25.30;;;;;;5061319;28;20166;-54
2020/12/15 09:24:29;;;;;;;4.38;3.25;;;20.00;25.40;;;;;;5042527;28;20210;-53
2020/12/15 09:26:56;;;;;;;4.00;3.17;;;20.00;25.40;;;;;;5063904;28;20219;-53
2020/12/15 09:29:22;;;;;;;3.92;3.53;;;20.00;25.40;;;;;;5050708;28;20192;-54
2020/12/15 09:31:55;;;;;;;10.68;3.65;;;20.00;25.40;;;;;;5045103;28;20170;-54
2020/12/15 09:34:22;;;;;;;9.43;4.55;;;20.00;25.40;;;;;;5044272;28;20234;-53
2020/12/15 09:36:57;;;;;;;5.13;3.22;;;20.10;25.50;;;;;;5058175;28;20703;-55
2020/12/15 09:39:28;;;;;;;3.88;3.30;;;20.10;25.50;;;;;;5048440;28;20169;-53
2020/12/15 09:41:58;;;;;;;4.00;3.47;;;20.10;25.50;;;;;;5063018;28;21171;-51
2020/12/15 09:44:24;;;;;;;3.78;3.47;;;20.10;25.50;;;;;;5046319;28;20279;-52
2020/12/15 09:46:50;;;;;;;17.73;3.60;;;20.10;25.50;;;;;;5059090;28;20661;-54
2020/12/15 09:49:16;;;;;;;3.63;3.33;;;20.10;25.50;;;;;;5032489;28;20463;-53
2020/12/15 09:51:49;;;;;;;3.35;3.05;;;20.10;25.40;;;;;;5047933;28;20184;-52
2020/12/15 09:54:15;;;;;;;3.45;3.17;;;20.20;25.50;;;;;;5062005;28;20198;-53
2020/12/15 09:56:44;;;;;;;5.43;3.70;;;20.20;25.50;;;;;;5071438;28;20191;-52
2020/12/15 09:59:12;;;;;;;4.10;3.45;;;20.20;25.70;;;;;;5050164;28;20180;-54
2020/12/15 10:01:44;;;;;;;3.40;3.10;;;20.20;25.60;;;;;;5061829;28;20166;-55
2020/12/15 10:04:10;;;;;;;3.30;3.00;;;20.20;25.60;;;;;;5065156;28;20172;-54
2020/12/15 10:06:38;;;;;;;4.35;3.95;;;20.20;25.70;;;;;;5043697;28;20218;-53
2020/12/15 10:09:07;;;;;;;6.18;3.85;;;20.20;26.20;;;;;;5050866;28;20210;-53
2020/12/15 10:11:33;;;;;;;6.13;3.60;;;20.30;25.80;;;;;;5047483;28;20165;-52
2020/12/15 10:14:02;;;;;;;4.45;2.80;;;20.30;25.80;;;;;;5041348;28;20744;-52
2020/12/15 10:16:29;;;;;;;3.42;3.13;;;20.30;25.90;;;;;;5067592;28;20633;-53
2020/12/15 10:18:55;;;;;;;4.97;3.78;;;20.30;25.90;;;;;;5035257;28;20196;-52
2020/12/15 10:21:21;;;;;;;3.83;3.42;;;20.30;26.00;;;;;;5048650;28;20257;-54
2020/12/15 10:23:49;;;;;;;4.70;3.70;;;20.30;26.00;;;;;;5044089;28;20709;-55
2020/12/15 10:26:24;;;;;;;5.75;3.10;;;20.40;25.90;;;;;;5062355;28;20869;-55
2020/12/15 10:28:52;;;;;;;5.25;3.10;;;20.40;25.80;;;;;;5047499;28;20172;-55
2020/12/15 10:31:19;;;;;;;5.53;3.63;;;20.40;25.80;;;;;;5043019;28;20174;-53
2020/12/15 10:33:46;;;;;;;3.80;3.50;;;20.40;25.90;;;;;;5069848;28;20165;-53
2020/12/15 10:36:13;;;;;;;7.38;3.38;;;20.50;25.90;;;;;;5065880;28;20185;-55
2020/12/15 10:38:40;;;;;;;3.72;3.03;;;20.50;25.90;;;;;;5006974;28;20251;-56
2020/12/15 10:41:09;;;;;;;4.40;3.53;;;20.50;25.80;;;;;;5052464;28;20174;-55
2020/12/15 10:43:35;;;;;;;3.90;2.67;;;20.50;25.80;;;;;;5044552;28;20180;-54
2020/12/15 10:46:02;;;;;;;4.40;3.70;;;20.50;25.70;;;;;;5054205;28;20189;-55
2020/12/15 10:48:29;;;;;;;7.10;3.67;;;20.60;25.80;;;;;;5035648;28;20263;-52
2020/12/15 10:50:55;;;;;;;3.70;3.40;;;20.50;25.70;;;;;;5029594;28;20599;-57
2020/12/15 10:53:21;;;;;;;4.03;3.17;;;20.50;25.70;;;;;;5049961;28;20201;-53
2020/12/15 10:55:51;;;;;;;4.30;3.72;;;20.60;25.80;;;;;;5053269;28;20181;-52
2020/12/15 10:58:18;;;;;;;6.60;3.42;;;20.60;25.70;;;;;;5025238;28;20217;-53
2020/12/15 11:00:44;;;;;;;8.18;4.20;;;20.60;25.60;;;;;;5044385;28;20173;-51
2020/12/15 11:03:11;;;;;;;3.40;3.10;;;20.50;25.40;;;;;;5042847;28;20178;-55
2020/12/15 11:05:40;;;;;;;3.35;3.05;;;20.60;25.40;;;;;;5052042;28;20529;-53
2020/12/15 11:08:13;;;;;;;4.57;2.80;;;20.50;25.50;;;;;;5032757;28;20198;-55
2020/12/15 11:10:39;;;;;;;3.55;3.25;;;20.60;25.60;;;;;;5053542;28;21336;-53
2020/12/15 11:13:05;;;;;;;3.78;3.45;;;20.60;25.80;;;;;;5030997;28;20222;-53
2020/12/15 11:15:33;;;;;;;3.85;3.55;;;20.50;25.70;;;;;;5040957;28;20274;-55
2020/12/15 11:18:00;;;;;;;4.93;3.10;;;20.50;25.70;;;;;;4996237;28;20684;-54
2020/12/15 11:20:25;;;;;;;3.33;3.00;;;20.60;25.80;;;;;;5027886;28;20247;-53
2020/12/15 11:22:51;;;;;;;5.07;2.50;;;20.50;25.70;;;;;;5033829;28;20305;-53
2020/12/15 11:25:17;;;;;;;3.87;3.57;;;20.50;25.80;;;;;;5034733;28;20643;-54
2020/12/15 11:27:44;;;;;;;4.95;3.15;;;20.60;25.90;;;;;;5032706;28;20456;-54
2020/12/15 11:30:11;;;;;;;4.53;3.25;;;20.60;25.90;;;;;;5035246;28;20166;-54
2020/12/15 11:32:37;;;;;;;4.63;2.97;;;20.60;25.90;;;;;;5038568;28;20171;-54
2020/12/15 11:35:03;;;;;;;4.60;3.50;;;20.60;25.90;;;;;;5028538;28;20170;-54
2020/12/15 11:37:28;;;;;;;3.53;2.87;;;20.60;25.40;;;;;;5033667;28;21413;-53
2020/12/15 11:39:54;;;;;;;5.80;3.20;;;20.60;26.00;;;;;;5021723;28;20200;-54
2020/12/15 11:42:21;;;;;;;4.73;3.77;;;20.60;25.90;;;;;;5041363;28;20178;-54
2020/12/15 11:44:46;;;;;;;4.22;2.90;;;20.60;25.90;;;;;;5034761;28;20201;-54
2020/12/15 11:47:12;;;;;;;3.17;2.90;;;21.30;26.40;;;;;;5025470;28;21463;-54
2020/12/15 11:49:38;;;;;;;3.33;3.13;;;20.60;25.80;;;;;;5011415;28;22074;-54
2020/12/15 11:52:04;;;;;;;8.60;3.73;;;20.60;25.60;;;;;;5035578;28;20980;-54
2020/12/15 11:54:30;;;;;;;3.73;3.43;;;20.60;25.70;;;;;;5029905;28;20197;-55
2020/12/15 11:56:56;;;;;;;4.00;3.20;;;20.60;26.10;;;;;;5036822;28;20478;-54
2020/12/15 11:59:22;;;;;;;4.65;3.28;;;20.60;26.20;;;;;;5016484;28;20202;-54
2020/12/15 12:01:48;;;;;;;4.17;3.20;;;20.60;26.30;;;;;;5023079;28;21416;-55
2020/12/15 12:04:14;;;;;;;5.53;2.90;;;20.60;26.40;;;;;;5042856;28;20301;-57
2020/12/15 12:06:40;;;;;;;5.00;3.33;;;20.60;26.30;;;;;;5035803;28;20454;-54
2020/12/15 12:09:05;;;;;;;3.43;3.13;;;20.60;26.20;;;;;;5016649;28;20633;-54
2020/12/15 12:11:31;;;;;;;5.33;3.53;;;20.60;26.30;;;;;;5048714;28;20403;-54
2020/12/15 12:13:57;;;;;;;4.37;3.30;;;20.60;26.40;;;;;;4997215;28;20700;-53
2020/12/15 12:16:23;;;;;;;3.70;2.83;;;20.60;26.50;;;;;;5032850;28;20436;-54
2020/12/15 12:18:49;;;;;;;4.80;3.42;;;20.70;26.50;;;;;;5026732;28;20171;-53
2020/12/15 12:21:15;;;;;;;4.70;3.50;;;21.30;26.90;;;;;;5040983;28;20179;-54
2020/12/15 12:23:41;;;;;;;3.10;2.80;;;20.70;26.50;;;;;;5040007;28;20213;-54
2020/12/15 12:26:07;;;;;;;4.45;3.13;;;20.70;26.40;;;;;;5042662;28;20206;-54
2020/12/15 12:28:33;;;;;;;7.40;3.20;;;20.70;26.50;;;;;;5024893;28;20212;-54
2020/12/15 12:30:59;;;;;;;4.70;3.23;;;20.70;26.50;;;;;;5037113;28;20976;-54
2020/12/15 12:33:25;;;;;;;4.68;3.00;;;20.70;26.40;;;;;;5037256;28;20212;-56
2020/12/15 12:35:54;;;;;;;6.93;3.80;;;20.70;26.40;;;;;;5052420;28;20186;-57
2020/12/15 12:38:20;;;;;;;4.15;3.65;;;20.70;26.40;;;;;;5016444;28;20411;-53
2020/12/15 12:40:47;;;;;;;3.88;3.30;;;20.70;26.40;;;;;;5048964;28;20288;-53
2020/12/15 12:43:14;;;;;;;5.22;3.40;;;20.70;26.40;;;;;;5036719;28;20180;-52
2020/12/15 12:45:40;;;;;;;3.90;3.10;;;20.70;26.40;;;;;;5046816;28;20414;-52
2020/12/15 12:48:09;;;;;;;3.97;2.95;;;20.70;26.40;;;;;;5030858;28;20443;-52
2020/12/15 12:50:36;;;;;;;5.70;3.17;;;20.70;26.40;;;;;;5042327;28;20320;-54